createdAt,value
2022-10-25T00:01:56.624Z,1.27
2022-10-25T00:04:24.149Z,2.53
2022-10-25T00:06:52.981Z,0.67
2022-10-25T00:09:20.378Z,1.70
2022-10-25T00:11:47.779Z,0.50
2022-10-25T00:14:18.734Z,0.83
2022-10-25T00:16:46.340Z,0.50
2022-10-25T00:19:14.291Z,1.20
2022-10-25T00:21:41.788Z,0.70
2022-10-25T00:24:12.191Z,0.40
2022-10-25T00:26:41.119Z,3.50
2022-10-25T00:29:08.630Z,1.13
2022-10-25T00:31:36.103Z,0.50
2022-10-25T00:34:03.581Z,1.47
2022-10-25T00:36:31.114Z,0.97
2022-10-25T00:38:59.175Z,1.10
2022-10-25T00:41:29.972Z,0.67
2022-10-25T00:43:58.006Z,0.93
2022-10-25T00:46:28.129Z,0.83
2022-10-25T00:48:58.681Z,0.30
2022-10-25T00:51:30.702Z,0.53
2022-10-25T00:53:58.284Z,2.57
2022-10-25T00:56:26.958Z,2.00
2022-10-25T00:58:57.943Z,0.57
2022-10-25T01:01:25.733Z,1.00
2022-10-25T01:03:54.208Z,0.30
2022-10-25T01:06:24.317Z,1.13
2022-10-25T01:08:53.004Z,1.97
2022-10-25T01:11:20.930Z,1.13
2022-10-25T01:13:49.167Z,0.40
2022-10-25T01:16:23.576Z,1.70
2022-10-25T01:18:54.194Z,0.50
2022-10-25T01:21:35.237Z,1.10
2022-10-25T01:24:17.510Z,0.63
2022-10-25T01:26:55.207Z,0.50
2022-10-25T01:29:32.524Z,0.63
2022-10-25T01:32:05.639Z,2.50
2022-10-25T01:34:34.858Z,0.43
2022-10-25T01:37:04.691Z,3.30
2022-10-25T01:39:33.924Z,2.00
2022-10-25T01:42:05.851Z,0.30
2022-10-25T01:47:14.524Z,1.53
2022-10-25T01:49:44.794Z,0.20
2022-10-25T01:52:12.293Z,1.70
2022-10-25T01:54:39.859Z,1.77
2022-10-25T01:57:16.062Z,3.13
2022-10-25T01:59:54.459Z,0.53
2022-10-25T02:02:26.959Z,0.40
2022-10-25T02:04:58.198Z,0.60
2022-10-25T02:07:27.593Z,2.00
2022-10-25T02:10:00.666Z,1.50
2022-10-25T02:12:31.155Z,1.23
2022-10-25T02:15:03.132Z,0.53
2022-10-25T02:17:34.567Z,1.80
2022-10-25T02:20:03.721Z,0.50
2022-10-25T02:22:33.288Z,0.30
2022-10-25T02:25:01.065Z,0.27
2022-10-25T02:27:29.127Z,1.33
2022-10-25T02:29:57.575Z,1.13
2022-10-25T02:32:25.474Z,0.60
2022-10-25T02:34:54.318Z,0.70
2022-10-25T02:37:21.776Z,0.60
2022-10-25T02:39:49.940Z,0.30
2022-10-25T02:42:17.438Z,0.40
2022-10-25T02:44:44.858Z,0.60
2022-10-25T02:47:12.310Z,0.70
2022-10-25T02:49:39.708Z,0.33
2022-10-25T02:52:08.506Z,0.93
2022-10-25T02:54:35.941Z,0.90
2022-10-25T02:57:03.374Z,0.93
2022-10-25T02:59:30.955Z,2.23
2022-10-25T03:01:58.463Z,0.20
2022-10-25T03:04:25.925Z,0.53
2022-10-25T03:06:53.342Z,0.50
2022-10-25T03:09:22.284Z,0.43
2022-10-25T03:11:49.749Z,0.37
2022-10-25T03:14:17.212Z,1.10
2022-10-25T03:16:45.059Z,2.07
2022-10-25T03:19:12.531Z,3.17
2022-10-25T03:21:41.929Z,0.50
2022-10-25T03:24:09.629Z,1.37
2022-10-25T03:26:38.401Z,1.60
2022-10-25T03:29:05.835Z,2.53
2022-10-25T03:31:33.275Z,2.00
2022-10-25T03:34:00.728Z,1.33
2022-10-25T03:36:28.148Z,0.73
2022-10-25T03:38:55.599Z,0.93
2022-10-25T03:41:23.083Z,0.43
2022-10-25T03:43:51.831Z,1.33
2022-10-25T03:46:19.278Z,1.17
2022-10-25T03:48:46.689Z,1.40
2022-10-25T03:51:14.096Z,1.00
2022-10-25T03:53:41.522Z,1.37
2022-10-25T03:56:09.189Z,1.03
2022-10-25T03:58:36.598Z,1.90
2022-10-25T04:01:08.927Z,2.87
2022-10-25T04:03:36.953Z,1.40
2022-10-25T04:06:04.450Z,0.53
2022-10-25T04:08:31.846Z,3.03
2022-10-25T04:10:59.302Z,2.53
2022-10-25T04:13:26.738Z,3.60
2022-10-25T04:15:54.189Z,1.77
2022-10-25T04:18:22.969Z,0.63
2022-10-25T04:20:50.390Z,0.77
2022-10-25T04:23:17.809Z,0.70
2022-10-25T04:25:45.196Z,2.70
2022-10-25T04:28:12.640Z,0.77
2022-10-25T04:30:40.092Z,1.47
2022-10-25T04:33:07.918Z,1.07
2022-10-25T04:35:36.702Z,1.50
2022-10-25T04:38:04.202Z,1.57
2022-10-25T04:40:31.763Z,0.47
2022-10-25T04:43:02.185Z,0.70
2022-10-25T04:45:29.651Z,0.97
2022-10-25T04:47:57.063Z,2.00
2022-10-25T04:50:24.498Z,1.40
2022-10-25T04:52:53.334Z,0.70
2022-10-25T04:55:20.770Z,1.07
2022-10-25T04:57:48.212Z,1.23
2022-10-25T05:00:15.632Z,3.27
2022-10-25T05:02:43.140Z,3.33
2022-10-25T05:05:10.647Z,1.63
2022-10-25T05:07:38.060Z,1.97
2022-10-25T05:10:07.184Z,1.00
2022-10-25T05:12:34.642Z,2.87
2022-10-25T05:15:02.054Z,1.43
2022-10-25T05:17:29.721Z,0.93
2022-10-25T05:19:57.225Z,1.03
2022-10-25T05:22:25.031Z,1.80
2022-10-25T05:24:52.515Z,2.03
2022-10-25T05:27:21.441Z,2.57
2022-10-25T05:29:48.835Z,0.70
2022-10-25T05:32:16.287Z,2.17
2022-10-25T05:34:43.687Z,2.47
2022-10-25T05:37:12.036Z,2.60
2022-10-25T05:39:39.462Z,0.90
2022-10-25T05:42:07.204Z,1.47
2022-10-25T05:44:36.009Z,0.83
2022-10-25T05:47:03.397Z,1.03
2022-10-25T05:49:30.840Z,3.13
2022-10-25T05:51:58.372Z,2.10
2022-10-25T05:54:25.856Z,1.23
2022-10-25T05:56:53.271Z,2.07
2022-10-25T05:59:20.730Z,1.33
2022-10-25T06:01:49.763Z,2.90
2022-10-25T06:04:17.774Z,1.97
2022-10-25T06:06:46.081Z,3.63
2022-10-25T06:09:13.848Z,2.97
2022-10-25T06:11:41.580Z,2.13
2022-10-25T06:14:10.818Z,3.17
2022-10-25T06:16:38.713Z,2.80
2022-10-25T06:19:07.570Z,0.87
2022-10-25T06:21:34.993Z,3.37
2022-10-25T06:24:04.185Z,3.47
2022-10-25T06:26:32.210Z,2.57
2022-10-25T06:29:01.179Z,2.13
2022-10-25T06:31:29.180Z,2.77
2022-10-25T06:33:56.632Z,2.40
2022-10-25T06:36:27.032Z,3.97
2022-10-25T06:38:54.704Z,2.97
2022-10-25T06:41:22.810Z,3.93
2022-10-25T06:43:50.308Z,4.00
2022-10-25T06:46:20.879Z,4.33
2022-10-25T06:48:48.302Z,3.93
2022-10-25T06:51:16.295Z,3.10
2022-10-25T06:53:45.330Z,3.27
2022-10-25T06:56:14.895Z,4.10
2022-10-25T06:58:42.830Z,2.27
2022-10-25T07:01:11.839Z,2.77
2022-10-25T07:03:39.561Z,1.97
2022-10-25T07:06:08.270Z,5.53
2022-10-25T07:08:36.441Z,1.87
2022-10-25T07:11:05.888Z,3.00
2022-10-25T07:13:34.146Z,1.83
2022-10-25T07:16:05.013Z,1.83
2022-10-25T07:18:32.656Z,4.30
2022-10-25T07:21:00.738Z,2.00
2022-10-25T07:23:28.502Z,3.23
2022-10-25T07:25:56.167Z,2.77
2022-10-25T07:28:25.319Z,2.50
2022-10-25T07:30:53.109Z,2.40
2022-10-25T07:33:21.572Z,6.20
2022-10-25T07:36:05.981Z,2.43
2022-10-25T07:38:37.658Z,5.43
2022-10-25T07:41:05.663Z,5.33
2022-10-25T07:43:34.629Z,2.83
2022-10-25T07:46:02.342Z,1.37
2022-10-25T07:48:29.988Z,3.50
2022-10-25T07:50:57.617Z,2.63
2022-10-25T07:53:25.300Z,3.40
2022-10-25T07:55:53.008Z,3.93
2022-10-25T07:58:20.755Z,6.23
2022-10-25T08:00:49.755Z,3.27
2022-10-25T08:03:18.387Z,2.77
2022-10-25T08:05:46.530Z,3.97
2022-10-25T08:08:14.272Z,2.73
2022-10-25T08:10:42.411Z,3.57
2022-10-25T08:13:09.996Z,3.03
2022-10-25T08:15:37.594Z,3.00
2022-10-25T08:18:07.450Z,1.47
2022-10-25T08:21:00.717Z,1.23
2022-10-25T08:23:22.712Z,1.77
2022-10-25T08:25:50.545Z,3.33
2022-10-25T08:28:18.354Z,1.50
2022-10-25T08:30:45.920Z,3.00
2022-10-25T08:33:14.745Z,5.23
2022-10-25T08:35:42.251Z,3.20
2022-10-25T08:38:09.818Z,1.23
2022-10-25T08:40:43.259Z,3.00
2022-10-25T08:43:15.961Z,1.50
2022-10-25T08:45:49.606Z,3.47
2022-10-25T08:48:21.658Z,2.27
2022-10-25T08:50:51.279Z,2.23
2022-10-25T08:53:22.482Z,3.13
2022-10-25T08:56:11.561Z,2.65
2022-10-25T08:58:40.932Z,2.30
2022-10-25T09:01:14.159Z,3.22
2022-10-25T09:03:43.389Z,3.90
2022-10-25T09:06:14.700Z,1.08
2022-10-25T09:08:49.262Z,2.50
2022-10-25T09:11:22.612Z,3.28
2022-10-25T09:13:53.488Z,2.78
2022-10-25T09:16:25.159Z,1.00
2022-10-25T09:18:55.152Z,2.00
2022-10-25T09:21:24.225Z,1.70
2022-10-25T09:23:58.369Z,2.60
2022-10-25T09:26:32.697Z,1.33
2022-10-25T09:29:02.714Z,2.17
2022-10-25T09:31:32.178Z,2.58
2022-10-25T09:34:04.289Z,2.45
2022-10-25T09:36:37.449Z,2.15
2022-10-25T09:39:11.244Z,1.92
2022-10-25T09:41:44.438Z,3.28
2022-10-25T09:44:15.563Z,2.45
2022-10-25T09:46:44.705Z,2.50
2022-10-25T09:49:20.405Z,3.28
2022-10-25T09:51:51.767Z,5.65
2022-10-25T09:54:24.829Z,4.70
2022-10-25T09:56:52.546Z,3.40
2022-10-25T09:59:20.631Z,3.23
2022-10-25T10:01:48.400Z,3.27
2022-10-25T10:04:24.768Z,3.17
2022-10-25T10:06:54.326Z,1.90
2022-10-25T10:09:22.476Z,3.70
2022-10-25T10:11:53.844Z,1.73
2022-10-25T10:14:25.855Z,2.40
2022-10-25T10:16:54.731Z,2.27
2022-10-25T10:19:24.216Z,3.60
2022-10-25T10:21:52.475Z,2.53
2022-10-25T10:24:21.994Z,2.60
2022-10-25T10:26:51.617Z,5.60
2022-10-25T10:29:21.115Z,7.33
2022-10-25T10:31:49.456Z,1.50
2022-10-25T10:34:28.579Z,2.03
2022-10-25T10:37:03.016Z,3.33
2022-10-25T10:39:30.656Z,2.57
2022-10-25T10:42:03.350Z,2.23
2022-10-25T10:44:34.341Z,3.03
2022-10-25T10:47:02.596Z,2.67
2022-10-25T10:49:38.676Z,2.70
2022-10-25T10:52:06.449Z,4.05
2022-10-25T10:54:35.497Z,2.83
2022-10-25T10:57:04.238Z,3.72
2022-10-25T10:59:37.451Z,1.50
2022-10-25T11:02:21.879Z,3.37
2022-10-25T11:04:51.766Z,3.05
2022-10-25T11:07:25.373Z,1.67
2022-10-25T11:09:52.894Z,1.87
2022-10-25T11:12:20.479Z,1.38
2022-10-25T11:14:48.018Z,0.95
2022-10-25T11:17:16.938Z,3.23
2022-10-25T11:19:48.592Z,1.23
2022-10-25T11:22:30.710Z,2.30
2022-10-25T11:25:06.551Z,1.83
2022-10-25T11:27:38.391Z,1.83
2022-10-25T11:30:14.552Z,2.22
2022-10-25T11:32:53.376Z,2.72
2022-10-25T11:35:28.179Z,2.22
2022-10-25T11:38:00.355Z,1.38
2022-10-25T11:40:30.472Z,1.67
2022-10-25T11:43:03.927Z,2.65
2022-10-25T11:45:42.780Z,1.40
2022-10-25T11:48:20.302Z,1.95
2022-10-25T11:50:51.417Z,3.20
2022-10-25T11:53:28.253Z,1.90
2022-10-25T11:55:58.008Z,1.13
2022-10-25T11:58:34.738Z,0.57
2022-10-25T12:01:08.083Z,4.47
2022-10-25T12:03:42.007Z,1.50
2022-10-25T12:06:13.414Z,3.80
2022-10-25T12:08:47.785Z,0.80
2022-10-25T12:11:18.907Z,1.27
2022-10-25T12:13:48.575Z,1.97
2022-10-25T12:16:17.871Z,1.75
2022-10-25T12:18:47.095Z,2.40
2022-10-25T12:21:19.115Z,3.05
2022-10-25T12:23:49.703Z,4.10
2022-10-25T12:26:21.963Z,3.13
2022-10-25T12:28:50.496Z,1.60
2022-10-25T12:31:18.806Z,2.63
2022-10-25T12:33:48.824Z,3.35
2022-10-25T12:36:24.186Z,1.20
2022-10-25T12:38:53.183Z,2.22
2022-10-25T12:41:21.616Z,0.88
2022-10-25T12:43:54.467Z,0.73
2022-10-25T12:46:29.390Z,1.58
2022-10-25T12:49:20.674Z,1.00
2022-10-25T12:51:55.095Z,3.20
2022-10-25T12:54:40.477Z,3.40
2022-10-25T12:57:14.220Z,4.53
2022-10-25T12:59:46.142Z,1.38
2022-10-25T13:02:22.008Z,0.90
2022-10-25T13:04:55.984Z,0.98
2022-10-25T13:07:24.331Z,2.63
2022-10-25T13:09:53.667Z,2.60
2022-10-25T13:12:23.205Z,1.95
2022-10-25T13:14:52.749Z,3.08
2022-10-25T13:17:39.056Z,1.17
2022-10-25T13:20:22.812Z,2.75
2022-10-25T13:22:50.823Z,1.95
2022-10-25T13:25:40.180Z,4.82
2022-10-25T13:28:31.582Z,2.00
2022-10-25T13:31:16.508Z,0.50
2022-10-25T13:33:44.195Z,2.70
2022-10-25T13:36:12.228Z,1.42
2022-10-25T13:38:40.245Z,6.97
2022-10-25T13:41:17.393Z,2.47
2022-10-25T13:43:59.069Z,3.85
2022-10-25T13:46:28.392Z,1.95
2022-10-25T13:48:57.467Z,0.98
2022-10-25T13:51:25.202Z,1.65
2022-10-25T13:53:54.206Z,3.90
2022-10-25T13:56:35.662Z,2.15
2022-10-25T13:59:03.526Z,2.63
2022-10-25T14:01:57.753Z,1.30
2022-10-25T14:04:49.110Z,1.73
2022-10-25T14:07:35.157Z,3.33
2022-10-25T14:10:03.608Z,1.70
2022-10-25T14:12:33.372Z,2.58
2022-10-25T14:15:04.161Z,1.60
2022-10-25T14:17:33.408Z,3.53
2022-10-25T14:20:02.761Z,2.15
2022-10-25T14:22:32.981Z,1.67
2022-10-25T14:25:03.296Z,2.65
2022-10-25T14:27:33.021Z,2.60
2022-10-25T14:30:13.656Z,2.10
2022-10-25T14:32:49.542Z,3.78
2022-10-25T14:35:17.837Z,3.17
2022-10-25T14:37:45.434Z,2.05
2022-10-25T14:40:18.912Z,2.80
2022-10-25T14:42:48.251Z,2.17
2022-10-25T14:45:20.490Z,2.28
2022-10-25T14:47:48.088Z,1.33
2022-10-25T14:50:16.213Z,2.45
2022-10-25T14:52:44.378Z,1.73
2022-10-25T14:55:17.531Z,1.98
2022-10-25T14:57:46.522Z,4.55
2022-10-25T15:00:20.295Z,1.40
2022-10-25T15:02:49.048Z,2.50
2022-10-25T15:05:18.700Z,1.40
2022-10-25T15:07:55.345Z,1.88
2022-10-25T15:10:40.788Z,0.65
2022-10-25T15:13:14.792Z,1.20
2022-10-25T15:15:45.189Z,0.90
2022-10-25T15:18:31.372Z,2.83
2022-10-25T15:21:09.771Z,1.13
2022-10-25T15:23:37.741Z,2.07
2022-10-25T15:26:20.962Z,0.90
2022-10-25T15:28:49.299Z,2.33
2022-10-25T15:31:23.752Z,4.17
2022-10-25T15:33:59.228Z,2.80
2022-10-25T15:36:27.537Z,1.57
2022-10-25T15:39:16.488Z,3.63
2022-10-25T15:41:43.436Z,18.67
2022-10-25T15:44:11.238Z,6.27
2022-10-25T15:46:41.457Z,3.33
2022-10-25T15:49:11.138Z,3.70
2022-10-25T15:51:39.785Z,1.93
2022-10-25T15:54:11.414Z,3.10
2022-10-25T15:56:38.960Z,1.83
2022-10-25T15:59:06.589Z,2.00
2022-10-25T16:01:34.181Z,2.13
2022-10-25T16:04:03.091Z,3.77
2022-10-25T16:06:30.711Z,1.23
2022-10-25T16:08:58.346Z,3.80
2022-10-25T16:11:26.055Z,2.40
2022-10-25T16:13:54.463Z,1.20
2022-10-25T16:16:39.429Z,3.17
2022-10-25T16:19:11.090Z,3.00
2022-10-25T16:21:38.864Z,1.87
2022-10-25T16:24:06.751Z,1.93
2022-10-25T16:26:36.353Z,4.77
2022-10-25T16:29:04.112Z,4.13
2022-10-25T16:31:31.877Z,3.27
2022-10-25T16:33:59.363Z,1.10
2022-10-25T16:36:28.377Z,1.00
2022-10-25T16:38:56.139Z,1.17
2022-10-25T16:41:24.864Z,3.13
2022-10-25T16:43:52.491Z,2.83
2022-10-25T16:46:20.003Z,1.77
2022-10-25T16:48:48.306Z,1.57
2022-10-25T16:51:17.069Z,3.47
2022-10-25T16:53:46.779Z,4.10
2022-10-25T16:56:14.470Z,5.37
2022-10-25T16:58:42.241Z,2.43
2022-10-25T17:01:17.545Z,3.07
2022-10-25T17:03:45.242Z,4.70
2022-10-25T17:06:28.696Z,4.87
2022-10-25T17:09:01.804Z,2.83
2022-10-25T17:11:29.407Z,4.77
2022-10-25T17:13:57.002Z,4.10
2022-10-25T17:16:24.565Z,2.20
2022-10-25T17:18:52.187Z,2.33
2022-10-25T17:21:19.706Z,4.97
2022-10-25T17:23:47.316Z,2.43
2022-10-25T17:26:16.323Z,5.33
2022-10-25T17:28:44.627Z,3.50
2022-10-25T17:31:13.619Z,7.10
2022-10-25T17:33:41.399Z,5.90
2022-10-25T17:36:09.923Z,5.23
2022-10-25T17:38:37.715Z,3.87
2022-10-25T17:41:05.546Z,4.20
2022-10-25T17:43:34.903Z,5.27
2022-10-25T17:46:02.914Z,4.10
2022-10-25T17:48:30.907Z,9.33
2022-10-25T17:51:02.081Z,4.30
2022-10-25T17:53:29.774Z,4.70
2022-10-25T17:55:57.410Z,5.20
2022-10-25T17:58:24.988Z,6.07
2022-10-25T18:00:54.573Z,6.73
2022-10-25T18:03:22.579Z,4.87
2022-10-25T18:05:50.197Z,5.60
2022-10-25T18:08:17.738Z,11.73
2022-10-25T18:10:45.365Z,8.87
2022-10-25T18:13:13.019Z,5.27
2022-10-25T18:15:40.686Z,5.50
2022-10-25T18:18:09.907Z,5.90
2022-10-25T18:20:40.497Z,6.20
2022-10-25T18:23:08.541Z,7.57
2022-10-25T18:25:36.231Z,8.50
2022-10-25T18:28:03.943Z,4.80
2022-10-25T18:30:31.600Z,6.93
2022-10-25T18:32:59.214Z,6.20
2022-10-25T18:35:28.171Z,8.07
2022-10-25T18:37:58.260Z,5.70
2022-10-25T18:40:25.970Z,6.80
2022-10-25T18:42:53.544Z,7.10
2022-10-25T18:45:21.182Z,10.27
2022-10-25T18:47:50.403Z,9.43
2022-10-25T18:50:18.285Z,7.27
2022-10-25T18:52:47.321Z,7.80
2022-10-25T18:55:15.446Z,6.43
2022-10-25T18:57:43.082Z,5.87
2022-10-25T19:00:11.125Z,5.97
2022-10-25T19:02:38.885Z,4.87
2022-10-25T19:07:35.648Z,4.70
2022-10-25T19:10:05.078Z,4.90
2022-10-25T19:12:32.787Z,8.50
2022-10-25T19:15:00.522Z,5.10
2022-10-25T19:17:28.172Z,5.63
2022-10-25T19:19:55.843Z,8.10
2022-10-25T19:22:23.483Z,4.93
2022-10-25T19:24:51.158Z,6.53
2022-10-25T19:27:20.296Z,5.23
2022-10-25T19:29:49.258Z,5.97
2022-10-25T19:32:16.920Z,6.37
2022-10-25T19:34:44.658Z,4.60
2022-10-25T19:37:12.309Z,3.67
2022-10-25T19:39:40.913Z,4.73
2022-10-25T19:42:08.522Z,6.13
2022-10-25T19:44:37.615Z,10.93
2022-10-25T19:47:05.313Z,6.50
2022-10-25T19:49:33.016Z,5.13
2022-10-25T19:52:00.643Z,3.27
2022-10-25T19:54:28.262Z,2.37
2022-10-25T19:56:56.095Z,5.43
2022-10-25T19:59:23.802Z,5.60
2022-10-25T20:01:52.880Z,3.13
2022-10-25T20:04:20.605Z,5.00
2022-10-25T20:06:48.262Z,7.13
2022-10-25T20:09:15.893Z,3.67
2022-10-25T20:11:43.433Z,5.43
2022-10-25T20:14:11.187Z,3.73
2022-10-25T20:16:38.933Z,3.40
2022-10-25T20:19:08.036Z,6.87
2022-10-25T20:21:37.396Z,5.30
2022-10-25T20:24:06.423Z,6.83
2022-10-25T20:26:35.029Z,4.00
2022-10-25T20:29:03.933Z,6.37
2022-10-25T20:31:32.899Z,9.63
2022-10-25T20:34:01.592Z,7.57
2022-10-25T20:36:30.995Z,6.67
2022-10-25T20:38:58.723Z,6.13
2022-10-25T20:41:27.783Z,7.03
2022-10-25T20:43:56.381Z,7.20
2022-10-25T20:46:25.256Z,4.70
2022-10-25T20:48:52.910Z,6.37
2022-10-25T20:51:21.027Z,8.60
2022-10-25T20:53:49.945Z,8.00
2022-10-25T20:56:17.894Z,6.50
2022-10-25T20:58:45.473Z,7.10
2022-10-25T21:01:13.245Z,9.40
2022-10-25T21:03:41.113Z,7.47
2022-10-25T21:06:10.518Z,6.30
2022-10-25T21:08:38.551Z,7.03
2022-10-25T21:11:09.359Z,6.57
2022-10-25T21:13:37.662Z,4.67
2022-10-25T21:16:06.237Z,7.80
2022-10-25T21:18:33.882Z,6.77
2022-10-25T21:21:02.817Z,8.23
2022-10-25T21:23:31.152Z,6.30
2022-10-25T21:25:58.994Z,6.70
2022-10-25T21:28:28.202Z,6.30
2022-10-25T21:30:55.758Z,6.93
2022-10-25T21:33:23.415Z,8.63
2022-10-25T21:35:51.083Z,7.77
2022-10-25T21:38:18.656Z,6.57
2022-10-25T21:40:46.198Z,6.10
2022-10-25T21:43:13.819Z,10.20
2022-10-25T21:45:43.008Z,8.50
2022-10-25T21:48:10.527Z,9.27
2022-10-25T21:50:38.126Z,8.93
2022-10-25T21:53:05.674Z,6.93
2022-10-25T21:55:33.252Z,7.73
2022-10-25T21:58:00.793Z,11.27
2022-10-25T22:00:28.500Z,6.83
2022-10-25T22:02:57.689Z,6.07
2022-10-25T22:05:25.275Z,6.80
2022-10-25T22:07:53.110Z,7.17
2022-10-25T22:10:20.802Z,9.53
2022-10-25T22:12:48.690Z,6.13
2022-10-25T22:15:16.413Z,5.67
2022-10-25T22:17:43.974Z,5.10
2022-10-25T22:20:13.378Z,6.40
2022-10-25T22:22:40.957Z,6.10
2022-10-25T22:25:08.899Z,6.50
2022-10-25T22:27:36.534Z,5.90
2022-10-25T22:30:04.414Z,10.33
2022-10-25T22:32:31.988Z,5.53
2022-10-25T22:34:59.615Z,7.77
2022-10-25T22:37:28.484Z,5.70
2022-10-25T22:39:56.085Z,4.40
2022-10-25T22:42:25.332Z,5.00
2022-10-25T22:44:52.810Z,6.83
2022-10-25T22:47:20.337Z,5.53
2022-10-25T22:49:50.229Z,6.90
2022-10-25T22:52:17.740Z,6.63
2022-10-25T22:54:47.188Z,6.23
2022-10-25T22:57:14.673Z,7.67
2022-10-25T22:59:42.210Z,6.87
2022-10-25T23:02:10.661Z,4.47
2022-10-25T23:04:40.849Z,6.93
2022-10-25T23:07:08.368Z,4.53
2022-10-25T23:09:35.885Z,6.33
2022-10-25T23:12:04.953Z,6.47
2022-10-25T23:14:34.143Z,5.70
2022-10-25T23:17:01.840Z,7.37
2022-10-25T23:19:29.362Z,10.07
2022-10-25T23:21:56.957Z,6.37
2022-10-25T23:24:24.790Z,4.13
2022-10-25T23:26:52.315Z,7.33
2022-10-25T23:29:21.263Z,6.53
2022-10-25T23:31:48.820Z,6.87
2022-10-25T23:34:16.390Z,8.73
2022-10-25T23:36:43.930Z,7.73
2022-10-25T23:39:11.498Z,9.23
2022-10-25T23:41:39.137Z,6.77
2022-10-25T23:44:06.683Z,6.53
2022-10-25T23:46:35.490Z,3.93
2022-10-25T23:49:02.965Z,7.40
2022-10-25T23:51:30.463Z,4.13
2022-10-25T23:53:57.946Z,11.27
2022-10-25T23:56:25.399Z,6.90
2022-10-25T23:58:53.785Z,5.50
